createdAt,value
2023-01-01T12:09:50.415Z,96.89
2023-01-01T12:10:50.272Z,97.95
2023-01-01T12:11:50.275Z,96.27
2023-01-01T12:12:50.274Z,96.42
2023-01-01T12:13:50.157Z,95.75
2023-01-01T12:14:50.277Z,95.75
2023-01-01T12:15:50.065Z,95.65
2023-01-01T12:16:50.049Z,95.17
2023-01-01T12:17:50.044Z,95.17
2023-01-01T12:18:49.921Z,95.07
2023-01-01T12:19:49.922Z,95.56
2023-01-01T12:20:49.801Z,95.07
2023-01-01T12:21:52.826Z,95.17
2023-01-01T12:22:49.807Z,94.31
2023-01-01T12:23:49.687Z,94.31
2023-01-01T12:24:49.687Z,94.98
2023-01-01T12:25:49.727Z,94.89
2023-01-01T12:26:49.565Z,94.31
2023-01-01T12:27:49.566Z,93.83
2023-01-01T12:28:49.453Z,93.83
2023-01-01T12:29:49.450Z,93.93
2023-01-01T12:30:49.476Z,93.64
2023-01-01T12:31:49.329Z,93.83
2023-01-01T12:32:49.338Z,94.21
2023-01-01T12:33:49.269Z,93.54
2023-01-01T12:34:49.159Z,93.74
2023-01-01T12:35:49.149Z,93.93
2023-01-01T12:36:49.152Z,93.07
2023-01-01T12:37:49.031Z,93.74
2023-01-01T12:38:49.031Z,93.74
2023-01-01T12:39:48.983Z,93.54
2023-01-01T12:40:48.912Z,94.02
2023-01-01T12:41:48.931Z,94.31
2023-01-01T12:42:48.795Z,93.74
2023-01-01T12:43:48.810Z,93.64
2023-01-01T12:44:48.792Z,93.74
2023-01-01T12:45:48.673Z,93.74
2023-01-01T12:46:48.747Z,93.07
2023-01-01T12:47:48.674Z,92.97
2023-01-01T12:48:48.554Z,93.54
2023-01-01T12:49:48.562Z,93.07
2023-01-01T12:50:55.067Z,92.30
2023-01-01T12:51:48.434Z,92.68
2023-01-01T12:52:48.439Z,93.07
2023-01-01T12:53:48.316Z,93.07
2023-01-01T12:54:48.321Z,92.49
2023-01-01T12:55:48.317Z,93.35
2023-01-01T12:56:48.196Z,92.78
2023-01-01T12:57:48.228Z,92.87
2023-01-01T12:58:48.195Z,92.58
2023-01-01T12:59:48.079Z,92.78
2023-01-01T13:00:48.079Z,92.58
2023-01-01T13:01:48.277Z,92.87
2023-01-01T13:02:48.158Z,92.68
2023-01-01T13:03:48.018Z,92.40
2023-01-01T13:04:47.963Z,92.58
2023-01-01T13:05:47.842Z,92.49
2023-01-01T13:06:47.844Z,92.68
2023-01-01T13:07:47.726Z,92.78
2023-01-01T13:08:47.728Z,92.78
2023-01-01T13:09:47.729Z,92.87
2023-01-01T13:10:47.616Z,92.87
2023-01-01T13:11:47.609Z,92.58
2023-01-01T13:12:47.614Z,92.40
2023-01-01T13:13:47.580Z,92.68
2023-01-01T13:14:47.490Z,92.40
2023-01-01T13:15:47.641Z,92.30
2023-01-01T13:16:47.464Z,92.30
2023-01-01T13:17:47.461Z,91.82
2023-01-01T13:18:47.383Z,92.01
2023-01-01T13:19:47.273Z,92.30
2023-01-01T13:20:47.258Z,92.21
2023-01-01T13:21:47.259Z,91.82
2023-01-01T13:22:47.139Z,92.11
2023-01-01T13:23:47.152Z,91.25
2023-01-01T13:24:47.020Z,91.15
2023-01-01T13:25:47.033Z,92.01
2023-01-01T13:26:47.025Z,91.34
2023-01-01T13:27:46.903Z,91.72
2023-01-01T13:28:46.907Z,91.72
2023-01-01T13:29:46.933Z,91.15
2023-01-01T13:30:46.789Z,91.25
2023-01-01T13:31:46.839Z,91.72
2023-01-01T13:32:46.785Z,91.72
2023-01-01T13:33:46.679Z,91.25
2023-01-01T13:34:46.676Z,91.72
2023-01-01T13:35:46.671Z,92.11
2023-01-01T13:36:46.555Z,91.82
2023-01-01T13:38:46.557Z,92.11
2023-01-01T13:39:46.440Z,92.30
2023-01-01T13:40:46.446Z,92.40
2023-01-01T13:41:46.443Z,92.40
2023-01-01T13:42:46.321Z,92.40
2023-01-01T13:43:46.317Z,92.49
2023-01-01T13:44:46.201Z,92.78
2023-01-01T13:46:11.797Z,92.68
2023-01-01T13:46:46.259Z,92.87
2023-01-01T13:47:46.086Z,92.68
2023-01-01T13:48:46.087Z,92.49
2023-01-01T13:49:46.085Z,92.58
2023-01-01T13:50:46.061Z,92.49
2023-01-01T13:52:45.976Z,92.49
2023-01-01T13:53:45.941Z,92.44
2023-01-01T13:54:45.951Z,92.54
2023-01-01T13:55:45.941Z,92.58
2023-01-01T13:56:45.819Z,92.35
2023-01-01T13:57:45.826Z,92.16
2023-01-01T13:58:45.716Z,92.25
2023-01-01T13:59:45.705Z,92.54
2023-01-01T14:00:49.817Z,92.44
2023-01-01T14:01:45.756Z,92.44
2023-01-01T14:02:45.682Z,92.73
2023-01-01T14:03:45.591Z,92.83
2023-01-01T14:04:45.469Z,92.83
2023-01-01T14:05:45.472Z,92.63
2023-01-01T14:06:45.474Z,92.92
2023-01-01T14:07:53.091Z,93.02
2023-01-01T14:08:45.365Z,92.63
2023-01-01T14:09:45.356Z,93.79
2023-01-01T14:10:45.243Z,93.12
2023-01-01T14:11:45.249Z,93.79
2023-01-01T14:12:45.259Z,93.59
2023-01-01T14:13:45.119Z,92.83
2023-01-01T14:14:45.124Z,93.88
2023-01-01T14:15:45.004Z,93.79
2023-01-01T14:16:45.059Z,93.59
2023-01-01T14:17:45.034Z,93.69
2023-01-01T14:19:44.886Z,94.07
2023-01-01T14:20:44.913Z,93.88
2023-01-01T14:21:44.891Z,94.26
2023-01-01T14:22:44.905Z,94.65
2023-01-01T14:23:44.889Z,94.45
2023-01-01T14:24:44.892Z,94.55
2023-01-01T14:25:44.768Z,94.55
2023-01-01T14:26:44.776Z,94.36
2023-01-01T14:27:44.774Z,94.84
2023-01-01T14:28:44.659Z,94.74
2023-01-01T14:29:44.415Z,94.84
2023-01-01T14:30:44.542Z,94.74
2023-01-01T14:31:44.557Z,94.36
2023-01-01T14:32:44.301Z,95.22
2023-01-01T14:33:44.327Z,95.03
2023-01-01T14:34:44.181Z,95.70
2023-01-01T14:35:44.181Z,94.98
2023-01-01T14:36:44.062Z,95.56
2023-01-01T14:37:44.060Z,95.31
2023-01-01T14:38:44.064Z,95.61
2023-01-01T14:39:43.945Z,94.89
2023-01-01T14:40:43.945Z,94.89
2023-01-01T14:41:43.951Z,94.70
2023-01-01T14:42:43.833Z,94.70
2023-01-01T14:43:43.828Z,94.74
2023-01-01T14:44:43.835Z,94.70
2023-01-01T14:45:43.829Z,94.12
2023-01-01T14:46:43.713Z,94.50
2023-01-01T14:47:43.592Z,95.07
2023-01-01T14:48:43.596Z,94.70
2023-01-01T14:49:43.669Z,94.70
2023-01-01T14:50:43.514Z,94.60
2023-01-01T14:51:44.792Z,94.74
2023-01-01T14:52:43.489Z,94.70
2023-01-01T14:53:43.363Z,94.60
2023-01-01T14:54:43.378Z,94.70
2023-01-01T14:55:43.363Z,94.70
2023-01-01T14:56:43.244Z,94.31
2023-01-01T14:57:43.243Z,94.12
2023-01-01T14:58:43.130Z,94.31
2023-01-01T14:59:45.612Z,94.89
2023-01-01T15:00:43.192Z,94.70
2023-01-01T15:01:43.285Z,94.60
2023-01-01T15:02:43.112Z,94.70
2023-01-01T15:03:43.009Z,94.12
2023-01-01T15:04:42.891Z,94.70
2023-01-01T15:05:42.892Z,94.60
2023-01-01T15:06:42.892Z,95.07
2023-01-01T15:07:42.780Z,95.46
2023-01-01T15:08:42.774Z,94.98
2023-01-01T15:09:42.662Z,94.60
2023-01-01T15:10:42.661Z,94.70
2023-01-01T15:11:42.654Z,94.60
2023-01-01T15:12:42.538Z,95.07
2023-01-01T15:13:42.476Z,95.46
2023-01-01T15:14:42.566Z,95.07
2023-01-01T15:15:42.364Z,95.07
2023-01-01T15:16:42.400Z,95.07
2023-01-01T15:17:42.356Z,94.98
2023-01-01T15:18:42.312Z,95.56
2023-01-01T15:19:42.249Z,95.07
2023-01-01T15:21:42.238Z,94.98
2023-01-01T15:22:42.188Z,94.79
2023-01-01T15:23:42.001Z,94.79
2023-01-01T15:24:42.002Z,94.89
2023-01-01T15:25:42.011Z,94.70
2023-01-01T15:26:41.883Z,94.89
2023-01-01T15:27:41.886Z,95.07
2023-01-01T15:28:41.886Z,94.79
2023-01-01T15:29:41.767Z,94.89
2023-01-01T15:30:41.767Z,94.79
2023-01-01T15:31:41.766Z,95.27
2023-01-01T15:32:41.655Z,94.98
2023-01-01T15:33:41.645Z,94.98
2023-01-01T15:34:41.525Z,95.17
2023-01-01T15:35:41.524Z,94.89
2023-01-01T15:36:41.536Z,94.31
2023-01-01T15:37:41.423Z,94.89
2023-01-01T15:38:41.404Z,94.50
2023-01-01T15:39:41.407Z,94.50
2023-01-01T15:40:41.292Z,94.31
2023-01-01T15:41:41.285Z,94.31
2023-01-01T15:42:41.293Z,94.70
2023-01-01T15:43:41.166Z,94.70
2023-01-01T15:44:41.272Z,94.89
2023-01-01T15:45:41.119Z,94.98
2023-01-01T15:46:41.298Z,95.07
2023-01-01T15:47:41.073Z,94.89
2023-01-01T15:48:41.208Z,95.36
2023-01-01T15:49:40.940Z,95.27
2023-01-01T15:50:41.033Z,94.93
2023-01-01T15:51:40.814Z,94.84
2023-01-01T15:52:40.817Z,94.98
2023-01-01T15:53:41.352Z,95.56
2023-01-01T15:54:40.962Z,95.27
2023-01-01T15:55:41.433Z,96.03
2023-01-01T15:56:40.814Z,95.79
2023-01-01T15:57:40.839Z,96.22
2023-01-01T15:58:40.580Z,96.99
2023-01-01T15:59:40.468Z,97.95
2023-01-01T16:00:40.466Z,97.80
2023-01-01T16:01:40.672Z,98.75
2023-01-01T16:02:40.975Z,99.99
2023-01-01T16:03:40.347Z,99.99
2023-01-01T16:04:40.567Z,99.99
2023-01-01T16:05:40.231Z,99.99
2023-01-01T16:06:40.228Z,99.99
2023-01-01T16:07:40.235Z,99.99
2023-01-01T16:08:40.456Z,99.99
2023-01-01T16:09:40.137Z,99.99
2023-01-01T16:10:40.326Z,99.99
2023-01-01T16:11:40.205Z,99.99
2023-01-01T16:12:39.995Z,99.99
2023-01-01T16:13:40.332Z,99.99
2023-01-01T16:14:40.128Z,99.99
2023-01-01T16:15:43.604Z,99.99
2023-01-01T16:16:40.107Z,99.99
2023-01-01T16:17:40.105Z,99.99
2023-01-01T16:18:39.756Z,99.99
2023-01-01T16:19:39.655Z,99.99
2023-01-01T16:20:39.856Z,99.99
2023-01-01T16:21:39.646Z,99.99
2023-01-01T16:22:39.524Z,99.99
2023-01-01T16:23:39.645Z,99.99
2023-01-01T16:24:39.519Z,99.99
2023-01-01T16:25:39.888Z,99.99
2023-01-01T16:26:39.763Z,99.99
2023-01-01T16:27:39.380Z,99.99
2023-01-01T16:28:39.292Z,99.99
2023-01-01T16:29:42.492Z,99.99
2023-01-01T16:30:39.493Z,99.99
2023-01-01T16:31:39.516Z,99.99
2023-01-01T16:32:39.181Z,99.99
2023-01-01T16:33:39.537Z,99.99
2023-01-01T16:34:39.537Z,99.99
2023-01-01T16:35:39.055Z,99.99
2023-01-01T16:36:39.302Z,99.99
2023-01-01T16:37:38.938Z,99.99
2023-01-01T16:38:39.518Z,99.99
2023-01-01T16:39:38.920Z,99.99
2023-01-01T16:40:38.907Z,99.99
2023-01-01T16:41:39.196Z,99.99
2023-01-01T16:42:38.798Z,99.99
2023-01-01T16:43:38.935Z,99.99
2023-01-01T16:44:38.674Z,99.99
2023-01-01T16:45:38.676Z,99.99
2023-01-01T16:46:38.864Z,99.99
2023-01-01T16:47:38.833Z,99.99
2023-01-01T16:48:38.561Z,99.99
2023-01-01T16:49:38.808Z,99.99
2023-01-01T16:50:38.441Z,99.99
2023-01-01T16:51:43.523Z,99.99
2023-01-01T16:52:44.237Z,99.99
2023-01-01T16:53:38.331Z,99.99
2023-01-01T16:54:38.326Z,99.99
2023-01-01T16:55:38.331Z,99.99
2023-01-01T16:56:38.205Z,99.99
2023-01-01T16:57:38.455Z,99.99
2023-01-01T16:58:49.028Z,99.99
2023-01-01T16:59:38.696Z,99.99
2023-01-01T17:00:38.218Z,99.99
2023-01-01T17:01:38.642Z,99.99
2023-01-01T17:02:38.212Z,99.99
2023-01-01T17:03:37.864Z,99.99
2023-01-01T17:04:37.877Z,99.99
2023-01-01T17:05:43.772Z,99.99
2023-01-01T17:06:37.737Z,99.99
2023-01-01T17:07:37.877Z,99.99
2023-01-01T17:08:37.874Z,99.99
2023-01-01T17:09:37.863Z,99.99
2023-01-01T17:10:37.772Z,99.99
2023-01-01T17:11:37.744Z,99.99
2023-01-01T17:12:37.748Z,99.99
2023-01-01T17:13:37.649Z,99.99
2023-01-01T17:14:37.627Z,99.99
2023-01-01T17:15:37.586Z,99.99
2023-01-01T17:16:39.691Z,99.99
2023-01-01T17:17:37.275Z,99.99
2023-01-01T17:19:13.387Z,99.99
2023-01-01T17:19:37.148Z,99.99
2023-01-01T17:20:37.150Z,99.99
2023-01-01T17:21:37.030Z,99.99
2023-01-01T17:22:37.071Z,99.99
2023-01-01T17:23:36.923Z,99.99
2023-01-01T17:24:36.915Z,99.99
2023-01-01T17:25:36.932Z,99.99
2023-01-01T17:26:36.829Z,99.99
2023-01-01T17:27:36.806Z,99.99
2023-01-01T17:28:36.835Z,99.99
2023-01-01T17:29:36.801Z,99.99
2023-01-01T17:30:36.680Z,99.99
2023-01-01T17:31:36.713Z,99.99
2023-01-01T17:32:36.563Z,99.99
2023-01-01T17:33:36.565Z,99.99
2023-01-01T17:34:36.444Z,99.99
2023-01-01T17:35:36.446Z,99.99
2023-01-01T17:36:36.447Z,99.99
2023-01-01T17:37:36.340Z,99.99
2023-01-01T17:38:36.337Z,99.99
2023-01-01T17:39:36.334Z,99.99
2023-01-01T17:40:37.140Z,99.99
2023-01-01T17:41:36.231Z,99.99
2023-01-01T17:42:36.141Z,99.99
2023-01-01T17:43:36.142Z,99.99
2023-01-01T17:44:36.219Z,99.99
2023-01-01T17:45:36.039Z,99.99
2023-01-01T17:46:36.038Z,99.99
2023-01-01T17:47:36.029Z,99.99
2023-01-01T17:48:35.863Z,99.99
2023-01-01T17:49:35.914Z,99.99
2023-01-01T17:50:35.750Z,99.99
2023-01-01T17:51:35.801Z,99.99
2023-01-01T17:52:35.745Z,99.99
2023-01-01T17:53:35.791Z,99.99
2023-01-01T17:54:35.673Z,99.99
2023-01-01T17:55:35.628Z,99.99
2023-01-01T17:56:35.646Z,99.99
2023-01-01T17:57:35.555Z,99.99
2023-01-01T17:58:35.904Z,99.99
2023-01-01T17:59:35.411Z,99.99
2023-01-01T18:00:35.441Z,99.99
2023-01-01T18:01:35.545Z,99.99
2023-01-01T18:02:35.479Z,99.99
2023-01-01T18:03:35.355Z,99.99
2023-01-01T18:04:35.192Z,99.99
2023-01-01T18:05:35.212Z,99.99
2023-01-01T18:06:40.245Z,99.99
2023-01-01T18:07:35.071Z,99.99
2023-01-01T18:08:35.202Z,99.99
2023-01-01T18:09:34.946Z,99.99
2023-01-01T18:10:34.852Z,99.99
2023-01-01T18:11:34.947Z,99.99
2023-01-01T18:12:34.847Z,99.99
2023-01-01T18:13:34.742Z,99.99
2023-01-01T18:14:34.805Z,99.99
2023-01-01T18:15:34.877Z,99.99
2023-01-01T18:16:34.716Z,99.99
2023-01-01T18:17:34.610Z,99.99
2023-01-01T18:18:34.493Z,99.99
2023-01-01T18:19:34.490Z,99.99
2023-01-01T18:20:34.374Z,99.99
2023-01-01T18:21:34.372Z,99.99
2023-01-01T18:22:38.081Z,99.99
2023-01-01T18:23:34.277Z,99.99
2023-01-01T18:24:34.261Z,99.99
2023-01-01T18:25:34.134Z,99.99
2023-01-01T18:26:34.135Z,99.99
2023-01-01T18:27:34.136Z,99.99
2023-01-01T18:28:34.016Z,99.99
2023-01-01T18:29:34.016Z,99.99
2023-01-01T18:30:33.895Z,99.99
2023-01-01T18:31:33.994Z,99.99
2023-01-01T18:32:33.917Z,99.99
2023-01-01T18:33:33.796Z,99.99
2023-01-01T18:34:33.783Z,99.99
2023-01-01T18:35:33.779Z,99.99
2023-01-01T18:36:33.671Z,99.99
2023-01-01T18:37:33.663Z,99.99
2023-01-01T18:38:33.643Z,99.99
2023-01-01T18:39:33.544Z,99.99
2023-01-01T18:40:33.555Z,99.99
2023-01-01T18:41:33.427Z,99.99
2023-01-01T18:42:35.018Z,99.99
2023-01-01T18:43:33.429Z,99.99
2023-01-01T18:44:33.312Z,99.99
2023-01-01T18:45:33.310Z,99.99
2023-01-01T18:46:33.376Z,99.99
2023-01-01T18:47:33.193Z,99.99
2023-01-01T18:48:33.197Z,99.99
2023-01-01T18:49:33.291Z,99.99
2023-01-01T18:50:33.326Z,99.99
2023-01-01T18:51:33.556Z,99.99
2023-01-01T18:52:32.959Z,99.99
2023-01-01T18:53:32.968Z,99.99
2023-01-01T18:54:32.955Z,99.99
2023-01-01T18:55:32.855Z,99.99
2023-01-01T18:56:32.843Z,99.99
2023-01-01T18:57:32.720Z,99.99
2023-01-01T18:58:32.809Z,99.99
2023-01-01T18:59:32.725Z,99.99
2023-01-01T19:00:32.652Z,99.99
2023-01-01T19:01:32.893Z,99.99
2023-01-01T19:03:39.039Z,99.99
2023-01-01T19:04:32.514Z,99.99
2023-01-01T19:05:32.504Z,99.99
2023-01-01T19:06:32.376Z,99.99
2023-01-01T19:07:32.374Z,99.99
2023-01-01T19:08:32.341Z,99.99
2023-01-01T19:09:32.257Z,99.99
2023-01-01T19:10:32.259Z,99.99
2023-01-01T19:11:32.163Z,99.99
2023-01-01T19:12:32.141Z,99.99
2023-01-01T19:13:32.162Z,99.99
2023-01-01T19:14:32.020Z,99.99
2023-01-01T19:15:32.023Z,99.99
2023-01-01T19:16:31.935Z,99.99
2023-01-01T19:17:32.122Z,99.99
2023-01-01T19:18:32.277Z,99.99
2023-01-01T19:19:31.907Z,99.99
2023-01-01T19:20:31.876Z,99.99
2023-01-01T19:21:31.803Z,99.99
2023-01-01T19:22:32.143Z,99.99
2023-01-01T19:23:31.760Z,99.99
2023-01-01T19:24:31.760Z,99.99
2023-01-01T19:25:31.643Z,99.99
2023-01-01T19:26:31.550Z,99.99
2023-01-01T19:27:31.522Z,99.99
2023-01-01T19:28:31.546Z,99.99
2023-01-01T19:29:31.539Z,99.99
2023-01-01T19:30:31.410Z,99.99
2023-01-01T19:31:31.443Z,99.99
2023-01-01T19:32:31.540Z,99.99
2023-01-01T19:33:31.298Z,99.99
2023-01-01T19:34:31.408Z,99.99
2023-01-01T19:35:31.170Z,99.99
2023-01-01T19:36:31.653Z,99.99
2023-01-01T19:37:31.194Z,99.99
2023-01-01T19:38:31.062Z,99.99
2023-01-01T19:39:31.055Z,99.99
2023-01-01T19:40:31.427Z,99.99
2023-01-01T19:41:31.182Z,99.99
2023-01-01T19:42:31.057Z,99.99
2023-01-01T19:43:31.067Z,99.99
2023-01-01T19:44:31.185Z,99.99
2023-01-01T19:45:30.821Z,99.99
2023-01-01T19:46:30.985Z,99.99
2023-01-01T19:47:31.301Z,99.99
2023-01-01T19:48:31.199Z,99.99
2023-01-01T19:49:30.585Z,99.99
2023-01-01T19:50:30.595Z,99.99
2023-01-01T19:51:32.743Z,99.99
2023-01-01T19:52:30.956Z,99.99
2023-01-01T19:53:30.618Z,99.99
2023-01-01T19:54:30.832Z,99.99
2023-01-01T19:55:31.191Z,99.99
2023-01-01T19:56:30.471Z,99.99
2023-01-01T19:57:31.196Z,99.99
2023-01-01T19:58:30.354Z,99.99
2023-01-01T20:00:30.793Z,99.99
2023-01-01T20:01:30.596Z,99.99
2023-01-01T20:02:47.699Z,99.99
2023-01-01T20:04:30.118Z,99.99
2023-01-01T20:05:35.112Z,99.99
2023-01-01T20:06:30.005Z,99.99
2023-01-01T20:07:30.614Z,99.99
2023-01-01T20:08:30.245Z,99.99
2023-01-01T20:09:29.770Z,99.99
2023-01-01T20:10:29.647Z,99.99
2023-01-01T20:11:29.732Z,99.99
2023-01-01T20:12:29.531Z,99.99
2023-01-01T20:13:29.771Z,99.99
2023-01-01T20:14:30.151Z,99.99
2023-01-01T20:15:29.652Z,99.99
2023-01-01T20:16:29.431Z,99.99
2023-01-01T20:18:29.659Z,99.99
2023-01-01T20:19:29.662Z,99.99
2023-01-01T20:20:29.299Z,99.99
2023-01-01T20:21:29.182Z,99.99
2023-01-01T20:22:29.059Z,99.99
2023-01-01T20:23:29.066Z,99.99
2023-01-01T20:24:29.060Z,99.99
2023-01-01T20:25:28.965Z,99.99
2023-01-01T20:26:28.945Z,99.99
2023-01-01T20:27:28.952Z,99.99
2023-01-01T20:28:28.827Z,99.99
2023-01-01T20:29:28.854Z,99.99
2023-01-01T20:30:28.709Z,99.99
2023-01-01T20:31:28.773Z,99.99
2023-01-01T20:32:28.739Z,99.99
2023-01-01T20:33:28.588Z,99.99
2023-01-01T20:34:28.591Z,99.99
2023-01-01T20:36:28.472Z,99.99
2023-01-01T20:37:28.481Z,99.99
2023-01-01T20:38:28.358Z,99.99
2023-01-01T20:39:28.360Z,99.99
2023-01-01T20:40:28.361Z,99.99
2023-01-01T20:41:28.237Z,99.99
2023-01-01T20:42:28.367Z,99.99
2023-01-01T20:43:28.521Z,99.99
2023-01-01T20:44:28.251Z,99.99
2023-01-01T20:45:28.264Z,99.99
2023-01-01T20:46:28.156Z,99.99
2023-01-01T20:47:28.141Z,99.99
2023-01-01T20:48:28.126Z,99.99
2023-01-01T20:49:28.305Z,99.99
2023-01-01T20:50:28.248Z,99.99
2023-01-01T20:51:28.234Z,99.99
2023-01-01T20:52:27.704Z,99.99
2023-01-01T20:53:27.768Z,99.99
2023-01-01T20:54:27.660Z,99.99
2023-01-01T20:55:27.588Z,99.99
2023-01-01T20:56:27.702Z,99.99
2023-01-01T20:57:27.504Z,99.99
2023-01-01T20:58:27.462Z,99.99
2023-01-01T20:59:36.344Z,99.99
2023-01-01T21:00:27.345Z,99.99
2023-01-01T21:01:27.635Z,99.99
2023-01-01T21:02:27.479Z,99.99
2023-01-01T21:03:27.295Z,99.99
2023-01-01T21:04:27.232Z,99.99
2023-01-01T21:05:27.107Z,99.99
2023-01-01T21:06:27.111Z,99.99
2023-01-01T21:07:27.105Z,99.99
2023-01-01T21:08:26.987Z,99.99
2023-01-01T21:09:26.990Z,99.99
2023-01-01T21:10:26.865Z,99.99
2023-01-01T21:11:26.867Z,99.99
2023-01-01T21:12:26.869Z,99.99
2023-01-01T21:13:26.774Z,99.99
2023-01-01T21:14:26.750Z,99.99
2023-01-01T21:15:26.748Z,99.99
2023-01-01T21:16:26.673Z,99.99
2023-01-01T21:17:26.629Z,99.99
2023-01-01T21:18:26.521Z,99.99
2023-01-01T21:19:27.484Z,99.99
2023-01-01T21:20:26.530Z,99.99
2023-01-01T21:21:26.409Z,99.99
2023-01-01T21:22:26.410Z,99.99
2023-01-01T21:23:26.411Z,99.99
2023-01-01T21:24:26.369Z,99.99
2023-01-01T21:25:50.480Z,99.99
2023-01-01T21:26:26.281Z,99.99
2023-01-01T21:27:26.161Z,99.99
2023-01-01T21:28:26.408Z,99.99
2023-01-01T21:29:26.453Z,99.99
2023-01-01T21:30:26.046Z,99.99
2023-01-01T21:31:26.049Z,99.99
2023-01-01T21:32:25.924Z,99.99
2023-01-01T21:33:26.287Z,99.99
2023-01-01T21:34:26.171Z,99.99
2023-01-01T21:35:25.809Z,99.99
2023-01-01T21:36:26.032Z,99.99
2023-01-01T21:37:25.931Z,99.99
2023-01-01T21:38:25.806Z,99.99
2023-01-01T21:39:25.796Z,99.99
2023-01-01T21:40:25.572Z,99.99
2023-01-01T21:41:25.573Z,99.99
2023-01-01T21:42:25.607Z,99.99
2023-01-01T21:43:25.480Z,99.99
2023-01-01T21:44:25.455Z,99.99
2023-01-01T21:45:25.451Z,99.99
2023-01-01T21:46:25.362Z,99.99
2023-01-01T21:47:25.348Z,99.99
2023-01-01T21:48:25.439Z,99.99
2023-01-01T21:49:25.227Z,99.99
2023-01-01T21:50:25.228Z,99.99
2023-01-01T21:51:25.103Z,99.99
2023-01-01T21:52:25.116Z,99.99
2023-01-01T21:53:25.192Z,99.99
2023-01-01T21:54:24.991Z,99.99
2023-01-01T21:55:24.993Z,99.99
2023-01-01T21:56:24.868Z,99.99
2023-01-01T21:57:24.872Z,99.99
2023-01-01T21:58:24.864Z,99.99
2023-01-01T21:59:25.078Z,99.99
2023-01-01T22:00:24.751Z,99.99
2023-01-01T22:01:25.059Z,99.99
2023-01-01T22:02:24.870Z,99.99
2023-01-01T22:03:24.702Z,99.99
2023-01-01T22:04:24.519Z,99.99
2023-01-01T22:05:29.727Z,99.99
2023-01-01T22:06:24.517Z,99.99
2023-01-01T22:07:56.631Z,99.99
2023-01-01T22:08:24.489Z,99.99
2023-01-01T22:09:24.400Z,99.99
2023-01-01T22:10:24.371Z,99.99
2023-01-01T22:11:24.373Z,99.99
2023-01-01T22:12:24.252Z,99.99
2023-01-01T22:13:24.258Z,99.99
2023-01-01T22:14:24.255Z,99.99
2023-01-01T22:15:24.139Z,99.99
2023-01-01T22:16:24.183Z,99.99
2023-01-01T22:17:24.167Z,99.99
2023-01-01T22:18:24.020Z,99.99
2023-01-01T22:19:24.025Z,99.99
2023-01-01T22:20:24.023Z,99.99
2023-01-01T22:21:23.899Z,99.99
2023-01-01T22:22:23.906Z,99.99
2023-01-01T22:23:23.787Z,99.99
2023-01-01T22:24:23.786Z,99.99
2023-01-01T22:25:23.786Z,99.99
2023-01-01T22:26:23.669Z,99.99
2023-01-01T22:28:23.689Z,99.99
2023-01-01T22:29:23.550Z,99.99
2023-01-01T22:30:23.555Z,99.99
2023-01-01T22:31:23.501Z,99.99
2023-01-01T22:32:23.433Z,99.99
2023-01-01T22:34:06.778Z,99.99
2023-01-01T22:35:06.755Z,99.99
2023-01-01T22:36:06.876Z,99.99
2023-01-01T22:37:06.886Z,99.99
2023-01-01T22:38:06.756Z,99.99
2023-01-01T22:39:06.769Z,99.99
2023-01-01T22:40:06.764Z,99.99
2023-01-01T22:41:06.642Z,99.99
2023-01-01T22:42:06.645Z,99.99
2023-01-01T22:43:06.541Z,99.99
2023-01-01T22:44:06.561Z,99.99
2023-01-01T22:45:06.530Z,99.99
2023-01-01T22:46:06.468Z,99.99
2023-01-01T22:47:06.299Z,99.99
2023-01-01T22:48:06.171Z,99.99
2023-01-01T22:49:06.056Z,99.99
2023-01-01T22:50:06.076Z,99.99
2023-01-01T22:51:05.933Z,99.99
2023-01-01T22:52:05.933Z,99.99
2023-01-01T22:53:05.936Z,99.99
2023-01-01T22:54:05.818Z,99.99
2023-01-01T22:55:05.820Z,99.99
2023-01-01T22:56:05.826Z,99.99
2023-01-01T22:57:05.705Z,99.99
2023-01-01T22:58:05.701Z,99.99
2023-01-01T22:59:05.701Z,99.99
2023-01-01T23:00:05.710Z,99.99
2023-01-01T23:01:05.660Z,99.99
2023-01-01T23:02:05.465Z,99.99
2023-01-01T23:03:05.833Z,99.99
2023-01-01T23:04:05.482Z,99.99
2023-01-01T23:05:05.346Z,99.99
2023-01-01T23:06:05.463Z,99.99
2023-01-01T23:07:05.360Z,99.99
2023-01-01T23:08:05.229Z,99.99
2023-01-01T23:09:05.232Z,99.99
2023-01-01T23:10:05.115Z,99.99
2023-01-01T23:11:05.111Z,99.99
2023-01-01T23:12:05.113Z,99.99
2023-01-01T23:13:04.994Z,99.99
2023-01-01T23:14:05.009Z,99.99
2023-01-01T23:15:05.005Z,99.99
2023-01-01T23:16:04.951Z,99.99
2023-01-01T23:17:04.879Z,99.99
2023-01-01T23:18:04.770Z,99.99
2023-01-01T23:19:04.683Z,99.99
2023-01-01T23:20:04.677Z,99.99
2023-01-01T23:21:04.559Z,99.99
2023-01-01T23:22:04.598Z,99.99
2023-01-01T23:23:04.562Z,99.99
2023-01-01T23:24:04.439Z,99.99
2023-01-01T23:25:04.450Z,99.99
2023-01-01T23:27:04.337Z,99.99
2023-01-01T23:28:04.325Z,99.99
2023-01-01T23:29:04.210Z,99.99
2023-01-01T23:30:04.203Z,99.99
2023-01-01T23:31:04.247Z,99.99
2023-01-01T23:32:04.122Z,99.99
2023-01-01T23:33:04.088Z,99.99
2023-01-01T23:34:03.984Z,99.99
2023-01-01T23:35:04.032Z,99.99
2023-01-01T23:36:04.011Z,99.99
2023-01-01T23:37:03.853Z,99.99
2023-01-01T23:38:03.880Z,99.99
2023-01-01T23:39:03.862Z,99.99
2023-01-01T23:40:03.744Z,99.99
2023-01-01T23:41:03.741Z,99.99
2023-01-01T23:42:03.621Z,99.99
2023-01-01T23:43:03.624Z,99.99
2023-01-01T23:44:03.624Z,99.99
2023-01-01T23:45:03.500Z,99.99
2023-01-01T23:46:03.596Z,99.99
2023-01-01T23:47:03.501Z,99.99
2023-01-01T23:48:03.387Z,99.99
2023-01-01T23:49:03.386Z,99.99
2023-01-01T23:50:03.412Z,99.99
2023-01-01T23:51:03.269Z,99.99
2023-01-01T23:52:03.271Z,99.99
2023-01-01T23:53:03.151Z,99.99
2023-01-01T23:54:03.173Z,99.99
2023-01-01T23:55:03.162Z,99.99
2023-01-01T23:56:03.051Z,99.99
2023-01-01T23:57:03.036Z,99.99
2023-01-01T23:58:03.038Z,99.99
2023-01-01T23:59:02.930Z,99.99
